Time;durP1;ratioP1;P1;durP2;ratioP2;P2;SDS_P1;SDS_P2;PMS_P1;PMS_P2;Temp;Humidity;BMP_temperature;BMP_pressure;BME280_temperature;BME280_humidity;BME280_pressure;Samples;Min_cycle;Max_cycle;Signal;HPM_P1;HPM_P2
2022/09/24 00:00:22;;;;;;;6.55;4.38;;;;;;;10.17;45.48;94170.25;5031587;28;20195;-78
2022/09/24 00:02:48;;;;;;;7.57;4.65;;;;;;;10.22;45.63;94186.09;5030091;28;20540;-79
2022/09/24 00:05:13;;;;;;;5.63;4.07;;;;;;;10.07;45.51;94178.47;5029458;28;20033;-78
2022/09/24 00:07:39;;;;;;;6.10;4.07;;;;;;;10.13;45.55;94193.19;5029659;28;20556;-78
2022/09/24 00:10:05;;;;;;;9.52;5.05;;;;;;;9.93;45.81;94163.66;5031702;28;20043;-78
2022/09/24 00:12:31;;;;;;;8.43;4.88;;;;;;;10.02;45.80;94180.47;5029343;28;20087;-80
2022/09/24 00:14:56;;;;;;;6.60;4.40;;;;;;;9.86;46.13;94161.41;5031569;28;20039;-80
2022/09/24 00:17:21;;;;;;;8.20;5.43;;;;;;;9.90;46.21;94167.69;5029975;28;20033;-79
2022/09/24 00:19:47;;;;;;;5.45;4.35;;;;;;;10.07;45.99;94183.78;5029661;28;20021;-79
2022/09/24 00:22:12;;;;;;;7.18;4.72;;;;;;;10.04;45.95;94178.28;5035316;28;20084;-78
2022/09/24 00:27:22;;;;;;;7.78;4.47;;;;;;;9.74;46.45;94150.50;5031650;28;20059;-79
2022/09/24 00:29:47;;;;;;;6.60;3.95;;;;;;;9.92;46.32;94176.16;5031067;28;20033;-79
2022/09/24 00:32:12;;;;;;;5.88;4.20;;;;;;;9.94;46.14;94181.94;5027982;28;20021;-79
2022/09/24 00:34:38;;;;;;;7.35;3.63;;;;;;;9.79;46.36;94159.16;5031298;28;20101;-80
2022/09/24 00:37:03;;;;;;;6.68;3.45;;;;;;;9.79;46.21;94163.69;5030073;28;20257;-78
2022/09/24 00:39:28;;;;;;;5.75;4.07;;;;;;;9.86;46.58;94177.34;5060237;28;20013;-81
2022/09/24 00:41:54;;;;;;;4.28;3.60;;;;;;;9.60;46.34;94141.78;5031302;28;20487;-80
2022/09/24 00:44:44;;;;;;;4.30;3.35;;;;;;;9.81;46.33;94178.25;5031141;28;20032;-79
2022/09/24 00:47:24;;;;;;;4.55;3.70;;;;;;;9.36;46.30;94110.97;5030453;28;20143;-78
2022/09/24 00:49:50;;;;;;;5.85;3.30;;;;;;;9.75;46.64;94176.00;5061177;28;20396;-81
2022/09/24 00:52:18;;;;;;;6.03;3.83;;;;;;;9.72;46.49;94168.63;5028760;28;20534;-81
2022/09/24 00:54:44;;;;;;;11.00;3.50;;;;;;;9.51;46.45;94138.28;5028203;28;20079;-81
2022/09/24 00:57:10;;;;;;;5.18;3.45;;;;;;;9.49;46.66;94137.81;5028409;28;20544;-79
2022/09/24 00:59:36;;;;;;;5.82;3.72;;;;;;;9.56;46.69;94156.75;5029908;28;20182;-78
2022/09/24 01:02:01;;;;;;;9.43;5.32;;;;;;;9.35;46.59;94114.69;5028361;28;20493;-79
2022/09/24 01:04:27;;;;;;;5.07;4.15;;;;;;;9.67;46.81;94152.81;5029850;28;20199;-78
2022/09/24 01:06:54;;;;;;;4.68;3.78;;;;;;;9.51;46.76;94131.09;5028202;28;20029;-80
2022/09/24 01:09:22;;;;;;;4.07;3.45;;;;;;;9.55;46.50;94136.59;5030023;28;20155;-78
2022/09/24 01:12:08;;;;;;;5.00;3.42;;;;;;;9.67;46.62;94163.44;5031001;28;20159;-79
2022/09/24 01:15:07;;;;;;;5.07;4.22;;;;;;;9.54;46.25;94146.41;5038405;28;20113;-78
2022/09/24 01:17:49;;;;;;;5.50;4.00;;;;;;;9.57;46.30;94161.00;5030111;28;20032;-82
2022/09/24 01:20:28;;;;;;;4.18;3.25;;;;;;;9.56;46.45;94156.75;5028294;28;20075;-79
2022/09/24 01:23:38;;;;;;;5.45;3.83;;;;;;;9.52;46.64;94145.16;5030158;28;20127;-77
2022/09/24 01:26:03;;;;;;;9.32;3.78;;;;;;;9.52;46.48;94163.75;5004631;28;20036;-79
2022/09/24 01:28:51;;;;;;;6.22;4.13;;;;;;;9.48;46.27;94160.13;4999966;28;20295;-78
2022/09/24 01:31:49;;;;;;;4.28;2.80;;;;;;;9.36;46.70;94145.47;5019825;28;20037;-79
2022/09/24 01:34:28;;;;;;;5.05;3.95;;;;;;;9.41;46.58;94161.28;5040740;28;20036;-79
2022/09/24 01:36:57;;;;;;;4.20;3.55;;;;;;;9.23;46.91;94137.53;5025208;28;20033;-80
2022/09/24 01:39:23;;;;;;;3.70;3.08;;;;;;;9.21;46.79;94132.50;5059039;28;20354;-79
2022/09/24 01:41:50;;;;;;;3.80;3.20;;;;;;;8.40;46.63;94025.34;5029661;28;20607;-78
2022/09/24 01:44:17;;;;;;;4.20;3.10;;;;;;;9.17;46.87;94139.50;5027601;28;20033;-79
2022/09/24 01:46:43;;;;;;;4.50;3.47;;;;;;;9.31;47.02;94161.50;5028976;28;20083;-78
2022/09/24 01:49:09;;;;;;;3.60;3.17;;;;;;;9.20;46.65;94154.03;5029026;28;20037;-79
2022/09/24 01:51:44;;;;;;;4.30;3.72;;;;;;;9.13;46.71;94143.81;5027637;28;20021;-81
2022/09/24 01:54:24;;;;;;;6.93;3.25;;;;;;;9.29;46.90;94168.19;5029804;28;20118;-81
2022/09/24 01:57:24;;;;;;;5.95;3.65;;;;;;;9.29;46.61;94171.63;5029118;28;20022;-78
2022/09/24 02:00:05;;;;;;;3.80;3.00;;;;;;;8.87;46.95;94118.81;5028627;28;20503;-79
2022/09/24 02:02:41;;;;;;;3.67;3.33;;;;;;;9.19;47.04;94171.06;5029493;28;20036;-78
2022/09/24 02:05:11;;;;;;;4.03;3.40;;;;;;;9.16;47.48;94167.09;5027197;28;20021;-78
2022/09/24 02:07:57;;;;;;;4.85;3.20;;;;;;;9.13;47.50;94167.72;5027448;28;20175;-79
2022/09/24 02:10:23;;;;;;;4.22;3.67;;;;;;;8.98;47.17;94158.13;5044377;28;20044;-80
2022/09/24 02:12:55;;;;;;;4.38;3.63;;;;;;;9.05;47.15;94165.69;5028682;28;20314;-80
2022/09/24 02:15:27;;;;;;;5.13;3.92;;;;;;;9.03;46.99;94160.69;5027869;28;20033;-78
2022/09/24 02:17:58;;;;;;;5.95;4.00;;;;;;;8.99;47.09;94169.53;5024905;28;20032;-79
2022/09/24 02:20:26;;;;;;;3.75;3.38;;;;;;;8.57;46.90;94099.75;5028451;28;20029;-81
2022/09/24 02:22:55;;;;;;;4.47;3.13;;;;;;;8.96;47.21;94170.09;5027442;28;20051;-80
2022/09/24 02:25:27;;;;;;;5.85;3.80;;;;;;;9.01;46.91;94181.41;5028478;28;20516;-81
2022/09/24 02:27:53;;;;;;;3.63;3.25;;;;;;;9.06;47.42;94188.50;5027762;28;20549;-78
2022/09/24 02:30:18;;;;;;;4.75;3.05;;;;;;;9.00;47.21;94181.69;5027443;28;20025;-78
2022/09/24 02:32:44;;;;;;;3.67;3.20;;;;;;;9.08;47.41;94199.63;5025707;28;20022;-78
2022/09/24 02:35:11;;;;;;;4.88;3.35;;;;;;;8.82;47.43;94164.78;5031031;28;20029;-78
2022/09/24 02:37:39;;;;;;;4.72;3.45;;;;;;;9.00;47.18;94190.44;5026736;28;20047;-80
2022/09/24 02:40:08;;;;;;;4.10;3.45;;;;;;;9.12;47.32;94211.25;5032945;28;20063;-80
2022/09/24 02:42:33;;;;;;;5.68;3.63;;;;;;;8.81;47.67;94165.06;5027894;28;20496;-78
2022/09/24 02:44:59;;;;;;;5.93;3.63;;;;;;;9.07;47.40;94206.00;5026590;28;20124;-79
2022/09/24 02:47:26;;;;;;;5.00;4.10;;;;;;;8.83;47.42;94163.72;5030570;28;20417;-78
2022/09/24 02:49:51;;;;;;;4.53;3.72;;;;;;;9.07;47.57;94213.16;5058220;28;20022;-78
2022/09/24 02:52:17;;;;;;;4.82;3.55;;;;;;;9.09;47.38;94216.31;5036085;28;20047;-80
2022/09/24 02:54:44;;;;;;;5.03;3.40;;;;;;;9.03;47.33;94207.66;5027234;28;20029;-78
2022/09/24 02:57:10;;;;;;;5.38;3.78;;;;;;;9.05;47.33;94221.41;5030118;28;20112;-80
2022/09/24 02:59:35;;;;;;;5.90;3.97;;;;;;;8.93;47.33;94205.19;5026255;28;20025;-78
2022/09/24 03:02:00;;;;;;;5.80;4.60;;;;;;;8.56;47.42;94156.50;5028714;28;20028;-78
2022/09/24 03:04:27;;;;;;;7.53;4.07;;;;;;;8.96;47.31;94221.31;5034502;28;20078;-78
2022/09/24 03:06:53;;;;;;;7.55;4.90;;;;;;;8.94;47.52;94212.88;5026002;28;20029;-78
2022/09/24 03:09:18;;;;;;;5.32;3.97;;;;;;;8.67;47.55;94175.66;5028192;28;20025;-79
2022/09/24 03:11:43;;;;;;;5.35;4.63;;;;;;;8.59;47.68;94169.19;5060479;28;20114;-79
2022/09/24 03:14:09;;;;;;;5.35;3.83;;;;;;;8.86;47.58;94202.91;5027543;28;20256;-79
2022/09/24 03:16:34;;;;;;;6.97;4.03;;;;;;;8.74;47.30;94188.56;5026536;28;20155;-78
2022/09/24 03:19:00;;;;;;;7.25;3.70;;;;;;;8.83;47.48;94211.47;5032497;28;20028;-78
2022/09/24 03:21:25;;;;;;;4.50;3.72;;;;;;;8.80;47.75;94216.56;5030171;28;20512;-79
2022/09/24 03:23:51;;;;;;;7.93;4.10;;;;;;;8.71;47.64;94202.38;5031866;28;20020;-79
2022/09/24 03:26:16;;;;;;;4.93;3.88;;;;;;;8.53;47.75;94178.31;5030346;28;20045;-78
2022/09/24 03:28:42;;;;;;;6.15;4.63;;;;;;;8.79;47.64;94220.28;5064164;28;20389;-78
2022/09/24 03:31:08;;;;;;;6.35;4.13;;;;;;;8.77;47.55;94220.56;5030985;28;20131;-78
2022/09/24 03:33:36;;;;;;;6.63;4.57;;;;;;;8.71;47.67;94226.25;5033250;28;20106;-78
2022/09/24 03:36:04;;;;;;;5.57;4.10;;;;;;;8.72;47.94;94233.13;5029530;28;20035;-78
2022/09/24 03:38:31;;;;;;;6.68;4.50;;;;;;;8.70;47.89;94241.41;5030955;28;20025;-81
2022/09/24 03:40:56;;;;;;;7.82;4.78;;;;;;;8.65;47.79;94235.38;5033115;28;20025;-79
2022/09/24 03:43:23;;;;;;;6.38;3.90;;;;;;;8.64;48.11;94241.75;5030569;28;20039;-78
2022/09/24 03:45:49;;;;;;;5.30;3.58;;;;;;;8.40;47.95;94204.78;5044350;28;20025;-78
2022/09/24 03:48:16;;;;;;;4.95;3.80;;;;;;;8.47;47.88;94213.13;5058491;28;20026;-80
2022/09/24 03:50:42;;;;;;;5.13;4.05;;;;;;;8.61;48.12;94237.03;5029110;28;20118;-78
2022/09/24 03:53:07;;;;;;;3.88;3.10;;;;;;;8.62;48.21;94241.25;5030606;28;20481;-79
2022/09/24 03:55:33;;;;;;;5.57;3.83;;;;;;;8.63;48.06;94240.19;5029266;28;20108;-78
2022/09/24 03:57:58;;;;;;;4.63;3.47;;;;;;;8.54;48.25;94221.50;5059416;28;20052;-78
2022/09/24 04:00:24;;;;;;;4.97;3.78;;;;;;;8.42;48.15;94207.91;5030077;28;20057;-78
2022/09/24 04:02:49;;;;;;;7.68;4.10;;;;;;;8.45;48.17;94218.72;5030091;28;20052;-79
2022/09/24 04:05:15;;;;;;;3.92;3.28;;;;;;;8.51;47.96;94233.47;5033924;28;20163;-79
2022/09/24 04:07:44;;;;;;;3.92;3.35;;;;;;;8.43;47.84;94210.28;5059848;28;20498;-79
2022/09/24 04:10:10;;;;;;;4.80;3.75;;;;;;;8.39;47.71;94214.59;5031317;28;20120;-78
2022/09/24 04:12:35;;;;;;;4.43;3.45;;;;;;;8.59;47.96;94238.13;5060115;28;20035;-79
2022/09/24 04:15:01;;;;;;;10.07;4.43;;;;;;;8.37;48.05;94206.13;5044249;28;20116;-80
2022/09/24 04:17:30;;;;;;;6.60;3.47;;;;;;;8.24;47.55;94190.16;5031664;28;21071;-79
2022/09/24 04:19:56;;;;;;;6.88;3.65;;;;;;;8.52;47.88;94243.00;5038469;28;20397;-78
2022/09/24 04:22:22;;;;;;;5.18;3.20;;;;;;;8.50;47.56;94234.56;5029958;28;20684;-78
2022/09/24 04:24:47;;;;;;;5.53;3.72;;;;;;;8.30;47.95;94226.91;5033389;28;20026;-79
2022/09/24 04:27:13;;;;;;;3.88;3.45;;;;;;;8.36;47.80;94235.59;5060656;28;20495;-81
2022/09/24 04:29:38;;;;;;;5.35;3.90;;;;;;;8.23;47.94;94210.59;5029916;28;20029;-80
2022/09/24 04:32:04;;;;;;;5.40;3.90;;;;;;;8.46;48.31;94262.69;5029807;28;20373;-81
2022/09/24 04:34:29;;;;;;;4.65;3.70;;;;;;;8.45;48.21;94263.00;5031336;28;20033;-80
2022/09/24 04:36:54;;;;;;;11.25;7.35;;;;;;;8.29;48.37;94230.63;5062273;28;20025;-80
2022/09/24 04:39:25;;;;;;;5.03;3.95;;;;;;;8.50;48.40;94263.72;5028634;28;20596;-79
2022/09/24 04:41:51;;;;;;;5.90;4.13;;;;;;;8.39;48.63;94243.75;5030884;28;20494;-79
2022/09/24 04:44:16;;;;;;;10.02;4.55;;;;;;;8.56;48.51;94261.75;5028154;28;20068;-79
2022/09/24 04:46:41;;;;;;;5.95;4.32;;;;;;;8.57;48.50;94258.81;5030249;28;20112;-79
2022/09/24 04:49:08;;;;;;;6.82;4.35;;;;;;;8.57;49.00;94258.81;5030915;28;20552;-80
2022/09/24 04:51:34;;;;;;;6.55;4.28;;;;;;;8.45;48.69;94233.84;5058523;28;20029;-79
2022/09/24 04:54:01;;;;;;;5.88;3.85;;;;;;;8.58;48.83;94243.69;5029088;28;20448;-78
2022/09/24 04:56:27;;;;;;;7.53;4.47;;;;;;;8.50;49.10;94226.59;5030093;28;20021;-78
2022/09/24 04:58:53;;;;;;;8.23;6.13;;;;;;;8.57;48.82;94227.00;5029143;28;20037;-81
2022/09/24 05:01:19;;;;;;;9.35;5.60;;;;;;;8.83;49.30;94253.09;5030057;28;20591;-78
2022/09/24 05:03:45;;;;;;;8.00;5.45;;;;;;;8.90;49.09;94266.78;5029638;28;20448;-78
2022/09/24 05:06:10;;;;;;;8.50;5.60;;;;;;;8.96;48.66;94270.91;5030053;28;20029;-80
2022/09/24 05:08:36;;;;;;;11.27;6.50;;;;;;;8.94;48.73;94260.63;5031053;28;20067;-79
2022/09/24 05:11:02;;;;;;;8.35;5.93;;;;;;;9.01;49.01;94268.19;5027772;28;20072;-80
2022/09/24 05:13:27;;;;;;;7.82;6.35;;;;;;;9.16;48.96;94272.47;5029642;28;20024;-81
2022/09/24 05:15:53;;;;;;;8.35;6.18;;;;;;;9.23;49.12;94264.91;5028951;28;20700;-80
2022/09/24 05:18:19;;;;;;;11.68;6.68;;;;;;;9.16;48.78;94251.22;5028980;28;20124;-79
2022/09/24 05:20:44;;;;;;;9.88;6.88;;;;;;;9.30;49.00;94266.09;5027308;28;20098;-80
2022/09/24 05:23:09;;;;;;;9.63;6.10;;;;;;;9.22;49.11;94245.56;5028292;28;20060;-79
2022/09/24 05:27:07;;;;;;;9.10;6.05;;;;;;;9.28;49.07;94247.03;5030167;28;20039;-79
2022/09/24 05:28:20;;;;;;;;;;;;;;;9.49;49.00;94268.66;5029749;28;20065;-79
2022/09/24 05:30:46;;;;;;;7.15;5.05;;;;;;;9.34;49.27;94240.53;5027609;28;19913;-80
2022/09/24 05:33:12;;;;;;;11.13;5.90;;;;;;;9.57;49.01;94269.84;5031333;28;20029;-79
2022/09/24 05:35:37;;;;;;;8.40;5.93;;;;;;;9.49;49.37;94246.66;5029248;28;20511;-80
2022/09/24 05:38:03;;;;;;;9.52;6.38;;;;;;;9.75;49.39;94274.28;5026903;28;20026;-80
2022/09/24 05:40:46;;;;;;;9.45;5.60;;;;;;;9.76;49.26;94267.88;5030217;28;20034;-79
2022/09/24 05:43:12;;;;;;;9.48;6.30;;;;;;;9.63;48.95;94234.94;5030583;28;20025;-80
2022/09/24 05:45:37;;;;;;;10.95;6.57;;;;;;;9.97;48.80;94285.00;5031578;28;20021;-79
2022/09/24 05:48:04;;;;;;;11.52;7.55;;;;;;;9.84;49.23;94288.44;5029450;28;20539;-79
2022/09/24 05:50:33;;;;;;;9.90;6.07;;;;;;;9.53;49.31;94229.06;5027479;28;20116;-81
2022/09/24 05:53:00;;;;;;;15.20;7.55;;;;;;;9.88;49.37;94270.81;5029813;28;20029;-80
2022/09/24 05:55:26;;;;;;;12.15;7.00;;;;;;;10.09;49.14;94295.88;5025967;28;20116;-78
2022/09/24 05:57:51;;;;;;;9.10;6.88;;;;;;;10.00;48.63;94295.03;5029096;28;20033;-79
2022/09/24 06:00:17;;;;;;;10.45;6.70;;;;;;;9.89;48.55;94293.63;5027951;28;20083;-78
2022/09/24 06:02:42;;;;;;;10.55;8.13;;;;;;;9.89;48.51;94291.78;5028110;28;20082;-81
2022/09/24 06:05:08;;;;;;;9.38;7.07;;;;;;;9.27;48.53;94192.38;5025973;28;20835;-79
2022/09/24 06:07:34;;;;;;;14.75;7.95;;;;;;;9.85;48.58;94260.78;5032087;28;20033;-81
2022/09/24 06:09:59;;;;;;;11.93;7.10;;;;;;;10.16;48.77;94293.63;5028915;28;20262;-80
2022/09/24 06:12:25;;;;;;;8.60;6.97;;;;;;;10.23;48.56;94288.69;5026976;28;20062;-81
2022/09/24 06:14:52;;;;;;;13.02;5.93;;;;;;;10.32;48.10;94283.44;5027345;28;20032;-82
2022/09/24 06:17:18;;;;;;;7.10;5.55;;;;;;;10.21;48.46;94248.31;5029949;28;20373;-79
2022/09/24 06:19:44;;;;;;;7.93;5.63;;;;;;;10.44;47.67;94274.97;5056050;28;20024;-79
2022/09/24 06:22:09;;;;;;;7.07;5.25;;;;;;;10.65;47.80;94294.72;5042612;28;20767;-80
2022/09/24 06:24:35;;;;;;;10.43;5.15;;;;;;;10.67;47.30;94289.84;5026472;28;20029;-79
2022/09/24 06:27:00;;;;;;;6.80;5.25;;;;;;;10.60;46.85;94270.88;5035203;28;20130;-80
2022/09/24 06:29:26;;;;;;;7.63;5.30;;;;;;;10.96;46.93;94310.72;5027773;28;20511;-80
2022/09/24 06:31:52;;;;;;;8.07;5.43;;;;;;;10.80;46.76;94270.41;5029340;28;20021;-79
2022/09/24 06:34:18;;;;;;;7.63;5.15;;;;;;;10.76;46.22;94273.97;5028194;28;20237;-80
2022/09/24 06:36:43;;;;;;;6.90;5.10;;;;;;;10.77;46.38;94310.09;5028007;28;20028;-79
2022/09/24 06:39:08;;;;;;;8.63;6.25;;;;;;;10.52;46.98;94268.91;5028682;28;20025;-79
2022/09/24 06:41:34;;;;;;;7.82;5.50;;;;;;;10.95;46.77;94312.63;5026290;28;20082;-78
2022/09/24 06:43:59;;;;;;;13.50;6.35;;;;;;;11.06;46.77;94311.25;5059135;28;20034;-79
2022/09/24 06:46:25;;;;;;;10.88;7.40;;;;;;;11.02;47.12;94294.34;5026105;28;20030;-79
2022/09/24 06:48:53;;;;;;;10.43;7.28;;;;;;;11.04;46.66;94272.75;5027440;28;20033;-82
2022/09/24 06:51:19;;;;;;;8.57;6.68;;;;;;;11.12;46.20;94278.13;5028476;28;20053;-80
2022/09/24 06:53:44;;;;;;;11.48;7.70;;;;;;;11.16;46.52;94268.41;5028780;28;20112;-80
2022/09/24 06:56:09;;;;;;;12.38;7.30;;;;;;;11.49;46.10;94321.41;5033032;28;20729;-79
2022/09/24 06:58:35;;;;;;;11.10;7.53;;;;;;;11.46;45.73;94303.34;5030000;28;20029;-80
2022/09/24 07:01:02;;;;;;;11.90;6.63;;;;;;;11.61;45.28;94313.63;5031679;28;20064;-79
2022/09/24 07:03:30;;;;;;;8.73;6.10;;;;;;;11.62;45.13;94312.56;5030984;28;20029;-80
2022/09/24 07:05:59;;;;;;;7.82;6.38;;;;;;;11.66;44.59;94308.19;5030722;28;20014;-79
2022/09/24 07:08:25;;;;;;;11.25;5.90;;;;;;;11.81;45.07;94305.09;5034357;28;20021;-79
2022/09/24 07:10:51;;;;;;;9.23;6.72;;;;;;;11.74;44.57;94291.41;5062429;28;20025;-79
2022/09/24 07:13:17;;;;;;;8.15;6.18;;;;;;;11.76;44.89;94291.91;5030105;28;20044;-80
2022/09/24 07:15:43;;;;;;;11.98;7.35;;;;;;;11.94;44.87;94314.06;5033710;28;20029;-80
2022/09/24 07:18:09;;;;;;;11.25;6.53;;;;;;;12.00;44.97;94308.28;5030929;28;20099;-79
2022/09/24 07:20:38;;;;;;;11.43;6.47;;;;;;;11.96;44.52;94288.69;5029351;28;20524;-79
2022/09/24 07:23:04;;;;;;;14.10;7.38;;;;;;;12.02;44.66;94295.47;5030988;28;20029;-78
2022/09/24 07:25:30;;;;;;;10.75;7.47;;;;;;;12.02;44.91;94303.44;5032173;28;20033;-80
2022/09/24 07:28:00;;;;;;;10.13;6.15;;;;;;;11.97;44.25;94273.47;5032078;28;20668;-82
2022/09/24 07:30:26;;;;;;;11.38;6.20;;;;;;;12.09;44.40;94286.97;5032209;28;20112;-81
2022/09/24 07:32:55;;;;;;;10.80;6.28;;;;;;;12.11;44.02;94270.69;5031258;28;20040;-80
2022/09/24 07:35:20;;;;;;;7.53;6.03;;;;;;;12.23;44.01;94286.84;5032884;28;20400;-80
2022/09/24 07:37:45;;;;;;;8.27;5.93;;;;;;;11.94;43.61;94240.22;5031576;28;20485;-80
2022/09/24 07:40:11;;;;;;;7.88;6.30;;;;;;;12.09;43.17;94254.19;5031430;28;20028;-80
2022/09/24 07:42:37;;;;;;;8.15;5.45;;;;;;;12.26;43.05;94259.56;5030692;28;20083;-81
2022/09/24 07:45:03;;;;;;;12.88;6.00;;;;;;;12.06;43.35;94258.28;5030845;28;20025;-78
2022/09/24 07:47:28;;;;;;;10.75;6.30;;;;;;;12.28;43.81;94281.38;5030188;28;20130;-78
2022/09/24 07:49:53;;;;;;;5.35;4.45;;;;;;;12.40;43.41;94282.34;5032551;28;20480;-79
2022/09/24 07:52:19;;;;;;;6.97;4.47;;;;;;;12.49;43.21;94282.34;5030361;28;20025;-79
2022/09/24 07:54:44;;;;;;;9.43;5.00;;;;;;;12.39;43.44;94271.97;5028752;28;20490;-79
2022/09/24 07:57:12;;;;;;;6.57;4.93;;;;;;;12.47;42.95;94295.19;5032408;28;22015;-80
2022/09/24 07:59:38;;;;;;;5.20;4.70;;;;;;;12.61;42.92;94292.44;5033215;28;20017;-79
2022/09/24 08:02:12;;;;;;;6.03;4.45;;;;;;;12.49;42.54;94279.66;5031182;28;20898;-79
2022/09/24 08:04:38;;;;;;;7.10;4.63;;;;;;;12.46;42.67;94261.63;5029079;28;20339;-80
2022/09/24 08:07:03;;;;;;;8.70;4.22;;;;;;;12.61;42.36;94285.22;5027832;28;20029;-79
2022/09/24 08:09:28;;;;;;;5.03;4.03;;;;;;;12.72;42.30;94291.78;5036758;28;20040;-80
2022/09/24 08:11:54;;;;;;;6.95;4.47;;;;;;;12.46;42.18;94251.75;5029357;28;20021;-79
2022/09/24 08:14:19;;;;;;;7.30;4.45;;;;;;;12.72;42.51;94291.78;5029240;28;20032;-79
2022/09/24 08:16:45;;;;;;;5.13;4.18;;;;;;;12.52;42.05;94270.28;5031311;28;20025;-79
2022/09/24 08:19:12;;;;;;;5.35;4.07;;;;;;;12.70;42.44;94299.34;5030991;28;20086;-79
2022/09/24 08:21:38;;;;;;;8.73;4.95;;;;;;;12.39;42.22;94234.63;5028497;28;20152;-80
2022/09/24 08:24:03;;;;;;;6.85;4.38;;;;;;;12.71;42.15;94294.78;5030125;28;20108;-79
2022/09/24 08:26:29;;;;;;;6.05;4.10;;;;;;;12.80;42.70;94293.69;5029867;28;20028;-80
2022/09/24 08:28:55;;;;;;;7.40;4.05;;;;;;;12.82;42.84;94286.13;5030401;28;20449;-81
2022/09/24 08:31:20;;;;;;;5.53;4.32;;;;;;;12.93;42.42;94291.16;5028761;28;20135;-80
2022/09/24 08:33:49;;;;;;;8.48;4.00;;;;;;;12.88;42.04;94286.75;5060770;28;20025;-79
2022/09/24 08:36:16;;;;;;;7.43;4.25;;;;;;;12.85;41.14;94266.84;5031748;28;20112;-80
2022/09/24 08:38:41;;;;;;;4.43;3.75;;;;;;;12.79;42.18;94265.41;5028293;28;20575;-80
2022/09/24 08:41:13;;;;;;;6.18;4.60;;;;;;;12.73;41.99;94288.03;5029630;28;20024;-80
2022/09/24 08:43:38;;;;;;;5.07;4.43;;;;;;;12.94;41.82;94292.72;5030093;28;20031;-79
2022/09/24 08:49:06;;;;;;;7.43;4.20;;;;;;;13.00;41.74;94251.41;5030643;28;20083;-79
2022/09/24 08:51:45;;;;;;;8.30;4.70;;;;;;;13.24;41.27;94270.38;5029357;28;20036;-78
2022/09/24 08:54:15;;;;;;;5.95;4.28;;;;;;;13.40;40.64;94284.75;5030442;28;20029;-81
2022/09/24 08:56:45;;;;;;;6.22;4.40;;;;;;;13.41;41.14;94264.97;5028747;28;20021;-81
2022/09/24 08:59:30;;;;;;;7.32;4.45;;;;;;;13.21;40.94;94222.91;5029836;28;20026;-79
2022/09/24 09:01:58;;;;;;;;;;;;;;;13.55;40.23;94270.88;5028370;28;20044;-81
2022/09/24 09:04:45;;;;;;;5.30;4.15;;;;;;;13.23;40.44;94204.69;5029976;28;19912;-80
2022/09/24 09:07:19;;;;;;;5.00;4.28;;;;;;;13.69;40.79;94263.47;5061665;28;20024;-79
2022/09/24 09:09:48;;;;;;;7.93;4.68;;;;;;;13.77;40.55;94263.75;5029394;28;20464;-81
2022/09/24 09:12:57;;;;;;;4.78;4.10;;;;;;;13.84;40.43;94267.50;5029993;28;20116;-81
2022/09/24 09:15:30;;;;;;;5.20;3.80;;;;;;;13.81;39.45;94257.44;4978785;28;20554;-80
2022/09/24 09:18:12;;;;;;;4.97;3.42;;;;;;;13.94;39.30;94261.00;5026332;28;20952;-79
2022/09/24 09:20:42;;;;;;;6.05;3.70;;;;;;;13.97;39.25;94260.38;5028555;28;20382;-79
2022/09/24 09:23:21;;;;;;;7.85;4.28;;;;;;;13.94;38.25;94266.34;5029683;28;20033;-79
2022/09/24 09:25:58;;;;;;;9.25;3.90;;;;;;;13.86;38.74;94251.13;5027501;28;20505;-80
2022/09/24 09:28:28;;;;;;;5.30;3.90;;;;;;;13.87;39.07;94232.09;5037573;28;20029;-79
2022/09/24 09:30:59;;;;;;;5.30;4.00;;;;;;;14.05;39.39;94252.28;5026545;28;20025;-79
2022/09/24 09:33:46;;;;;;;9.55;4.15;;;;;;;13.85;38.53;94223.63;5044215;28;20052;-81
2022/09/24 09:36:30;;;;;;;6.22;3.55;;;;;;;14.10;38.06;94249.44;5059399;28;20036;-79
2022/09/24 09:39:27;;;;;;;5.47;4.40;;;;;;;14.21;38.86;94249.06;5031579;28;20732;-79
2022/09/24 09:42:08;;;;;;;7.95;5.32;;;;;;;14.10;38.78;94238.72;5027389;28;20040;-80
2022/09/24 09:44:42;;;;;;;7.35;5.25;;;;;;;14.01;39.17;94221.16;5059238;28;20529;-80
2022/09/24 09:47:18;;;;;;;7.23;4.47;;;;;;;13.93;38.74;94200.63;5028027;28;20021;-80
2022/09/24 09:49:47;;;;;;;6.13;3.90;;;;;;;14.19;38.41;94219.94;5028792;28;20377;-80
2022/09/24 09:52:23;;;;;;;6.57;4.32;;;;;;;14.25;37.46;94217.84;5059087;28;20021;-79
2022/09/24 09:54:49;;;;;;;6.15;4.18;;;;;;;14.47;37.88;94234.38;5058769;28;20033;-79
2022/09/24 09:57:21;;;;;;;4.95;3.97;;;;;;;14.44;37.32;94213.63;5026399;28;20401;-80
2022/09/24 09:59:49;;;;;;;4.47;3.53;;;;;;;14.63;38.90;94207.81;5042381;28;20027;-80
2022/09/24 10:02:24;;;;;;;4.68;3.97;;;;;;;14.61;36.62;94204.69;5028987;28;20068;-79
2022/09/24 10:05:01;;;;;;;6.72;3.88;;;;;;;14.65;37.24;94197.56;5029744;28;20185;-81
2022/09/24 10:07:27;;;;;;;5.55;3.38;;;;;;;14.68;37.31;94188.09;5028670;28;20025;-79
2022/09/24 10:10:24;;;;;;;5.40;4.75;;;;;;;14.85;36.66;94212.03;5029238;28;20447;-81
2022/09/24 10:13:10;;;;;;;6.03;4.07;;;;;;;14.84;36.67;94191.72;5027795;28;20028;-81
2022/09/24 10:15:54;;;;;;;;;;;;;;;14.98;36.31;94202.91;5043184;28;20721;-79
2022/09/24 10:18:34;;;;;;;4.40;3.55;;;;;;;14.91;36.15;94189.31;5028190;28;20393;-81
2022/09/24 10:21:08;;;;;;;5.85;3.97;;;;;;;14.88;36.57;94171.97;5027543;28;20156;-80
2022/09/24 10:23:38;;;;;;;4.43;3.65;;;;;;;15.06;35.45;94185.97;5026407;28;20042;-79
2022/09/24 10:26:04;;;;;;;7.28;3.35;;;;;;;15.16;35.41;94196.25;5026487;28;20557;-80
2022/09/24 10:31:22;;;;;;;5.95;3.53;;;;;;;14.99;35.07;94151.72;5028417;28;20150;-80
2022/09/24 10:33:52;;;;;;;4.38;3.08;;;;;;;15.27;35.04;94184.00;5027037;28;20029;-81
2022/09/24 10:36:19;;;;;;;4.22;2.83;;;;;;;15.39;34.96;94183.25;5024737;28;20451;-82
2022/09/24 10:38:45;;;;;;;4.93;3.05;;;;;;;15.26;34.76;94147.59;5026437;28;20021;-80
2022/09/24 10:41:30;;;;;;;6.20;3.80;;;;;;;15.50;34.39;94180.94;5027305;28;20033;-81
2022/09/24 10:44:00;;;;;;;4.28;3.72;;;;;;;15.22;35.91;94172.72;5026432;28;20086;-79
2022/09/24 10:46:41;;;;;;;4.70;3.10;;;;;;;15.44;35.25;94186.53;5027296;28;20631;-81
2022/09/24 10:49:20;;;;;;;4.32;3.08;;;;;;;15.49;35.32;94161.41;5036308;28;20393;-80
2022/09/24 10:52:25;;;;;;;5.20;2.97;;;;;;;15.24;35.72;94143.72;5041623;28;20136;-79
2022/09/24 10:55:12;;;;;;;4.20;2.78;;;;;;;15.42;36.54;94169.16;5057926;28;20041;-79
2022/09/24 10:57:55;;;;;;;3.35;2.78;;;;;;;15.40;35.33;94174.09;5028250;28;20032;-82
2022/09/24 11:00:25;;;;;;;2.10;1.70;;;;;;;15.41;32.85;94149.63;5027582;28;20026;-81
2022/09/24 11:03:23;;;;;;;3.45;2.40;;;;;;;15.61;35.28;94155.22;5030285;28;20064;-80
2022/09/24 11:05:55;;;;;;;6.03;2.60;;;;;;;15.41;35.63;94168.38;5031108;28;20048;-78
2022/09/24 11:08:21;;;;;;;3.20;1.73;;;;;;;15.52;32.38;94173.34;5034083;28;20112;-80
2022/09/24 11:10:52;;;;;;;2.45;1.70;;;;;;;15.62;32.32;94172.88;5034861;28;20060;-80
2022/09/24 11:13:22;;;;;;;2.30;1.67;;;;;;;15.71;31.10;94160.94;5028215;28;20020;-78
2022/09/24 11:16:04;;;;;;;1.80;1.60;;;;;;;15.54;31.11;94165.75;5036553;28;20033;-81
2022/09/24 11:18:44;;;;;;;3.05;2.03;;;;;;;15.48;31.35;94157.16;5036031;28;20021;-81
2022/09/24 11:21:30;;;;;;;2.00;1.67;;;;;;;15.30;31.90;94121.69;5025192;28;20537;-81
2022/09/24 11:24:16;;;;;;;1.98;1.63;;;;;;;15.61;31.12;94153.34;5031398;28;20024;-80
2022/09/24 11:26:44;;;;;;;4.50;2.47;;;;;;;15.54;31.10;94144.31;5027196;28;20021;-79
2022/09/24 11:29:12;;;;;;;1.73;1.63;;;;;;;15.66;30.79;94141.59;5058908;28;20060;-80
2022/09/24 11:31:41;;;;;;;2.42;1.50;;;;;;;15.79;30.45;94140.50;5040711;28;20021;-78
2022/09/24 11:34:22;;;;;;;2.40;1.40;;;;;;;15.73;30.06;94131.88;5034861;28;20029;-78
2022/09/24 11:36:56;;;;;;;2.60;1.65;;;;;;;15.82;30.96;94129.06;5007962;28;20215;-79
2022/09/24 11:39:59;;;;;;;2.25;1.75;;;;;;;15.80;30.74;94128.63;5029723;28;20231;-79
2022/09/24 11:42:30;;;;;;;2.20;1.67;;;;;;;15.76;30.34;94107.06;5028575;28;20039;-79
2022/09/24 11:45:23;;;;;;;2.70;1.77;;;;;;;15.82;30.29;94118.34;5030361;28;20613;-79
2022/09/24 11:48:10;;;;;;;1.65;1.35;;;;;;;15.84;29.24;94106.16;5031140;28;20021;-79
2022/09/24 11:50:46;;;;;;;2.30;1.60;;;;;;;15.83;30.13;94109.19;5059916;28;20025;-79
2022/09/24 11:53:33;;;;;;;1.92;1.58;;;;;;;15.83;29.62;94090.41;5031662;28;20077;-81
2022/09/24 11:56:04;;;;;;;2.15;1.70;;;;;;;16.06;30.36;94120.97;5032348;28;20083;-79
2022/09/24 11:58:35;;;;;;;1.75;1.50;;;;;;;16.07;30.35;94108.34;5037358;28;20025;-81